createdAt,value
2022-09-30T00:03:41.624Z,0.00
2022-09-30T00:18:42.291Z,0.00
2022-09-30T00:33:42.363Z,0.00
2022-09-30T00:48:42.485Z,0.00
2022-09-30T01:03:42.593Z,0.00
2022-09-30T01:18:42.703Z,0.00
2022-09-30T01:33:42.842Z,0.00
2022-09-30T01:48:42.917Z,0.00
2022-09-30T02:03:43.067Z,0.00
2022-09-30T02:18:43.141Z,0.00
2022-09-30T02:33:43.821Z,0.00
2022-09-30T02:48:43.900Z,0.00
2022-09-30T03:03:44.030Z,0.00
2022-09-30T03:18:44.115Z,0.00
2022-09-30T03:33:44.282Z,0.00
2022-09-30T03:48:44.375Z,0.00
2022-09-30T04:03:44.497Z,0.00
2022-09-30T04:18:44.580Z,0.00
2022-09-30T04:33:44.672Z,0.00
2022-09-30T04:48:44.789Z,0.00
2022-09-30T05:03:44.889Z,5.62
2022-09-30T05:18:44.995Z,22.50
2022-09-30T05:33:45.149Z,50.62
2022-09-30T05:48:45.309Z,78.75
2022-09-30T06:03:46.326Z,106.88
2022-09-30T06:18:46.458Z,146.25
2022-09-30T06:33:47.843Z,174.38
2022-09-30T06:48:47.967Z,196.88
2022-09-30T07:03:51.482Z,236.25
2022-09-30T07:18:53.164Z,298.12
2022-09-30T07:33:53.341Z,343.12
2022-09-30T07:48:53.448Z,354.38
2022-09-30T08:03:53.537Z,646.88
2022-09-30T08:18:53.705Z,916.88
2022-09-30T08:33:53.787Z,1175.62
2022-09-30T08:48:53.917Z,1395.00
2022-09-30T09:03:53.968Z,1614.38
2022-09-30T09:18:54.123Z,1985.62
2022-09-30T09:33:54.206Z,2272.50
2022-09-30T09:48:54.297Z,2559.38
2022-09-30T10:03:54.590Z,2812.50
2022-09-30T10:18:54.720Z,3133.12
2022-09-30T10:33:54.608Z,3133.12
2022-09-30T10:48:54.730Z,3476.25
2022-09-30T11:03:54.989Z,3802.50
2022-09-30T11:18:55.056Z,3870.00
2022-09-30T11:33:55.034Z,3915.00
2022-09-30T11:48:55.155Z,4089.38
2022-09-30T12:03:55.408Z,4404.38
2022-09-30T12:18:55.586Z,781.88
2022-09-30T12:33:55.662Z,568.12
2022-09-30T12:48:55.801Z,4286.25
2022-09-30T13:03:55.890Z,4190.62
2022-09-30T13:18:55.986Z,4218.75
2022-09-30T13:33:56.054Z,4258.12
2022-09-30T13:48:56.157Z,3954.38
2022-09-30T14:03:56.341Z,3774.38
2022-09-30T14:18:56.443Z,3403.12
2022-09-30T14:33:56.444Z,3189.38
2022-09-30T14:48:56.587Z,2885.62
2022-09-30T15:03:56.621Z,444.38
2022-09-30T15:18:56.757Z,281.25
2022-09-30T15:33:56.804Z,236.25
2022-09-30T15:48:56.905Z,146.25
2022-09-30T16:03:57.022Z,123.75
2022-09-30T16:18:57.197Z,73.12
2022-09-30T16:33:57.221Z,39.38
2022-09-30T16:48:57.302Z,11.25
2022-09-30T17:03:57.404Z,0.00
2022-09-30T17:18:57.539Z,0.00
2022-09-30T17:33:57.574Z,0.00
2022-09-30T17:48:57.713Z,0.00
2022-09-30T18:03:57.807Z,0.00
2022-09-30T18:18:58.007Z,0.00
2022-09-30T18:33:58.009Z,0.00
2022-09-30T18:48:58.216Z,0.00
2022-09-30T19:03:58.301Z,0.00
2022-09-30T19:18:58.454Z,0.00
2022-09-30T19:34:00.684Z,0.00
2022-09-30T19:49:00.904Z,0.00
2022-09-30T20:04:00.963Z,0.00
2022-09-30T20:19:02.566Z,0.00
2022-09-30T20:34:02.521Z,0.00
2022-09-30T20:49:02.618Z,0.00
2022-09-30T21:04:02.701Z,0.00
2022-09-30T21:19:02.856Z,0.00
2022-09-30T21:34:03.028Z,0.00
2022-09-30T21:49:03.197Z,0.00
2022-09-30T22:04:03.738Z,0.00
2022-09-30T22:19:04.031Z,0.00
2022-09-30T22:34:03.939Z,0.00
2022-09-30T22:49:04.098Z,0.00
2022-09-30T23:04:04.360Z,0.00
2022-09-30T23:19:04.432Z,0.00
2022-09-30T23:34:04.506Z,0.00
2022-09-30T23:49:05.136Z,0.00
